| Date | Time | Temp. (oF) | Dew Point (oF) | Rel. Hum. (%) | Press. (in.) | Wind Dir. | Wind Speed (mph) | Hourly Rainfall (in.) |
|
|---|---|---|---|---|---|---|---|---|---|
| 1 | 11/09 | 00:00 | 33 | 32 | 100 | 30.22 | WNW | 2 | 0.00 |
| 2 | 11/08 | 23:00 | 34 | 33 | 100 | 30.24 | WNW | 1 | 0.00 |
| 3 | 11/08 | 22:00 | 35 | 34 | 98 | 30.23 | N | 1 | 0.00 |
| 4 | 11/08 | 21:00 | 36 | 34 | 94 | 30.24 | N | 0 | 0.00 |
| 5 | 11/08 | 20:00 | 38 | 35 | 89 | 30.24 | NW | 4 | 0.00 |
| 6 | 11/08 | 19:00 | 40 | 36 | 86 | 30.24 | NNW | 2 | 0.00 |
| 7 | 11/08 | 18:00 | 41 | 36 | 84 | 30.24 | NW | 4 | 0.00 |
| 8 | 11/08 | 17:00 | 43 | 36 | 79 | 30.22 | NW | 4 | 0.00 |
| 9 | 11/08 | 16:00 | 46 | 37 | 72 | 30.20 | W | 5 | 0.00 |
| 10 | 11/08 | 15:00 | 46 | 37 | 71 | 30.21 | W | 1 | 0.00 |
| 11 | 11/08 | 14:00 | 45 | 37 | 74 | 30.21 | NNW | 5 | 0.00 |
| 12 | 11/08 | 13:00 | 45 | 36 | 73 | 30.22 | N | 5 | 0.00 |
| 13 | 11/08 | 12:00 | 44 | 36 | 74 | 30.23 | NNW | 7 | 0.00 |
| 14 | 11/08 | 11:00 | 43 | 36 | 78 | 30.25 | NNE | 2 | 0.00 |
| 15 | 11/08 | 10:00 | 41 | 38 | 92 | 30.25 | NE | 1 | 0.00 |
| 16 | 11/08 | 09:00 | 38 | 34 | 87 | 30.25 | NW | 4 | 0.00 |
| 17 | 11/08 | 08:00 | 37 | 34 | 91 | 30.25 | NNW | 3 | 0.00 |
| 18 | 11/08 | 07:00 | 37 | 35 | 93 | 30.24 | NW | 1 | 0.00 |
| 19 | 11/08 | 06:00 | 37 | 34 | 92 | 30.22 | N | 5 | 0.00 |
| 20 | 11/08 | 05:00 | 37 | 35 | 93 | 30.23 | NW | 4 | 0.00 |
| 21 | 11/08 | 04:00 | 36 | 34 | 94 | 30.20 | NW | 5 | 0.00 |
| 22 | 11/08 | 03:00 | 36 | 34 | 95 | 30.18 | N | 5 | 0.00 |
| 23 | 11/08 | 02:00 | 36 | 35 | 98 | 30.17 | N | 4 | 0.00 |
| 24 | 11/08 | 01:00 | 36 | 34 | 96 | 30.16 | NNW | 4 | 0.00 |